createdAt,value
2022-08-14T00:01:58.439Z,18.19
2022-08-14T00:04:35.218Z,18.20
2022-08-14T00:07:13.960Z,18.18
2022-08-14T00:10:01.911Z,17.99
2022-08-14T00:12:33.507Z,18.00
2022-08-14T00:15:08.951Z,17.96
2022-08-14T00:17:38.209Z,18.01
2022-08-14T00:20:23.354Z,17.82
2022-08-14T00:22:57.839Z,17.78
2022-08-14T00:25:41.533Z,17.71
2022-08-14T00:28:15.640Z,17.65
2022-08-14T00:30:46.547Z,17.59
2022-08-14T00:33:16.148Z,17.52
2022-08-14T00:36:34.962Z,17.60
2022-08-14T00:38:34.604Z,17.60
2022-08-14T00:41:04.040Z,18.08
2022-08-14T00:43:32.543Z,17.92
2022-08-14T00:46:05.219Z,17.68
2022-08-14T00:48:36.792Z,17.42
2022-08-14T00:51:09.018Z,17.41
2022-08-14T00:53:43.004Z,17.26
2022-08-14T00:56:15.590Z,17.26
2022-08-14T00:58:45.123Z,17.18
2022-08-14T01:01:18.749Z,17.16
2022-08-14T01:03:52.603Z,17.20
2022-08-14T01:06:21.502Z,17.28
2022-08-14T01:08:59.548Z,17.23
2022-08-14T01:11:35.521Z,17.44
2022-08-14T01:14:25.366Z,17.20
2022-08-14T01:16:55.578Z,17.05
2022-08-14T01:19:41.587Z,17.07
2022-08-14T01:22:12.591Z,17.04
2022-08-14T01:24:43.547Z,16.99
2022-08-14T01:27:18.008Z,16.96
2022-08-14T01:30:03.265Z,17.09
2022-08-14T01:32:45.246Z,16.90
2022-08-14T01:36:03.587Z,16.75
2022-08-14T01:38:09.277Z,16.60
2022-08-14T01:40:41.967Z,16.55
2022-08-14T01:43:18.738Z,16.55
2022-08-14T01:46:06.493Z,16.57
2022-08-14T01:48:37.015Z,16.54
2022-08-14T01:51:19.551Z,16.51
2022-08-14T01:53:55.583Z,16.42
2022-08-14T01:56:37.342Z,16.51
2022-08-14T01:59:09.703Z,16.77
2022-08-14T02:01:41.992Z,17.04
2022-08-14T02:04:40.449Z,17.27
2022-08-14T02:07:09.734Z,17.42
2022-08-14T02:09:45.007Z,17.49
2022-08-14T02:12:29.121Z,17.17
2022-08-14T02:15:00.336Z,16.98
2022-08-14T02:17:30.652Z,16.83
2022-08-14T02:19:58.906Z,16.55
2022-08-14T02:22:28.771Z,16.44
2022-08-14T02:25:02.081Z,16.32
2022-08-14T02:28:22.294Z,16.33
2022-08-14T02:30:18.110Z,16.30
2022-08-14T02:32:45.975Z,16.22
2022-08-14T02:35:18.491Z,16.09
2022-08-14T02:37:47.453Z,16.08
2022-08-14T02:40:18.281Z,15.99
2022-08-14T02:42:55.243Z,16.07
2022-08-14T02:45:33.271Z,15.95
2022-08-14T02:48:10.074Z,15.95
2022-08-14T02:50:39.942Z,15.82
2022-08-14T02:53:08.688Z,15.77
2022-08-14T02:55:40.153Z,15.71
2022-08-14T02:58:08.303Z,15.79
2022-08-14T03:00:40.161Z,15.86
2022-08-14T03:03:08.652Z,15.81
2022-08-14T03:05:40.969Z,15.71
2022-08-14T03:08:15.216Z,15.69
2022-08-14T03:10:49.359Z,15.72
2022-08-14T03:13:19.353Z,15.62
2022-08-14T03:15:49.189Z,15.61
2022-08-14T03:18:31.456Z,15.47
2022-08-14T03:21:03.080Z,15.50
2022-08-14T03:23:38.131Z,15.43
2022-08-14T03:26:12.719Z,15.43
2022-08-14T03:28:47.884Z,15.41
2022-08-14T03:31:16.574Z,15.40
2022-08-14T03:33:44.985Z,15.32
2022-08-14T03:37:51.281Z,15.34
2022-08-14T03:39:21.823Z,15.31
2022-08-14T03:41:56.157Z,15.28
2022-08-14T03:45:20.251Z,15.32
2022-08-14T03:47:15.665Z,15.38
2022-08-14T03:49:44.798Z,15.36
2022-08-14T03:52:37.963Z,15.27
2022-08-14T03:55:07.498Z,15.25
2022-08-14T03:57:37.259Z,15.17
2022-08-14T04:00:13.788Z,15.16
2022-08-14T04:02:57.094Z,15.18
2022-08-14T04:05:26.455Z,15.03
2022-08-14T04:08:08.804Z,15.06
2022-08-14T04:10:42.169Z,15.06
2022-08-14T04:13:11.506Z,15.11
2022-08-14T04:15:56.292Z,15.09
2022-08-14T04:18:27.312Z,15.09
2022-08-14T04:20:55.889Z,15.02
2022-08-14T04:23:29.385Z,15.05
2022-08-14T04:26:01.190Z,15.02
2022-08-14T04:29:08.502Z,14.99
2022-08-14T04:31:24.811Z,15.01
2022-08-14T04:33:53.353Z,14.99
2022-08-14T04:36:21.609Z,15.15
2022-08-14T04:39:09.812Z,15.15
2022-08-14T04:42:09.267Z,15.31
2022-08-14T04:44:41.210Z,15.33
2022-08-14T04:47:26.500Z,15.42
2022-08-14T04:49:59.265Z,15.42
2022-08-14T04:52:31.281Z,15.40
2022-08-14T04:55:06.094Z,15.45
2022-08-14T04:57:34.788Z,15.52
2022-08-14T05:00:04.756Z,15.70
2022-08-14T05:02:36.789Z,15.83
2022-08-14T05:05:04.937Z,15.76
2022-08-14T05:07:46.496Z,15.89
2022-08-14T05:10:25.931Z,15.85
2022-08-14T05:13:11.831Z,15.93
2022-08-14T05:15:44.762Z,15.99
2022-08-14T05:18:52.918Z,16.20
2022-08-14T05:21:57.066Z,16.24
2022-08-14T05:23:55.466Z,16.37
2022-08-14T05:26:23.207Z,16.40
2022-08-14T05:28:51.191Z,16.61
2022-08-14T05:31:21.139Z,16.77
2022-08-14T05:33:56.655Z,16.70
2022-08-14T05:36:25.209Z,16.70
2022-08-14T05:38:54.503Z,16.71
2022-08-14T05:41:23.300Z,16.94
2022-08-14T05:44:01.959Z,17.27
2022-08-14T05:46:31.159Z,17.23
2022-08-14T05:48:59.785Z,17.26
2022-08-14T05:51:28.479Z,17.16
2022-08-14T05:54:01.425Z,17.00
2022-08-14T05:56:37.882Z,16.99
2022-08-14T05:59:05.904Z,16.96
2022-08-14T06:01:36.913Z,17.19
2022-08-14T06:04:05.297Z,17.61
2022-08-14T06:06:38.088Z,18.14
2022-08-14T06:09:10.060Z,18.29
2022-08-14T06:11:37.954Z,18.44
2022-08-14T06:14:12.338Z,18.71
2022-08-14T06:16:52.944Z,19.17
2022-08-14T06:19:23.242Z,19.07
2022-08-14T06:21:58.458Z,19.59
2022-08-14T06:24:30.494Z,19.75
2022-08-14T06:27:04.715Z,20.14
2022-08-14T06:29:35.030Z,20.86
2022-08-14T06:32:38.453Z,21.68
2022-08-14T06:35:03.523Z,22.64
2022-08-14T06:37:41.595Z,23.11
2022-08-14T06:40:25.703Z,23.23
2022-08-14T06:42:57.160Z,23.31
2022-08-14T06:45:28.604Z,23.82
2022-08-14T06:47:59.094Z,23.65
2022-08-14T06:50:28.619Z,23.78
2022-08-14T06:52:58.514Z,24.22
2022-08-14T06:55:28.243Z,24.77
2022-08-14T06:57:58.102Z,25.32
2022-08-14T07:00:31.195Z,26.22
2022-08-14T07:03:19.130Z,26.58
2022-08-14T07:05:57.952Z,27.09
2022-08-14T07:08:31.022Z,27.32
2022-08-14T07:11:00.983Z,27.60
2022-08-14T07:13:30.641Z,27.58
2022-08-14T07:16:00.530Z,27.84
2022-08-14T07:18:36.437Z,27.65
2022-08-14T07:21:07.324Z,27.80
2022-08-14T07:23:35.204Z,28.15
2022-08-14T07:26:10.261Z,28.06
2022-08-14T07:28:43.006Z,28.17
2022-08-14T07:31:12.915Z,28.10
2022-08-14T07:33:49.993Z,28.40
2022-08-14T07:36:27.930Z,28.50
2022-08-14T07:38:59.211Z,28.38
2022-08-14T07:41:31.355Z,28.08
2022-08-14T07:44:29.039Z,28.61
2022-08-14T07:46:51.204Z,29.29
2022-08-14T07:49:24.289Z,29.61
2022-08-14T07:51:52.287Z,29.47
2022-08-14T07:54:23.368Z,29.95
2022-08-14T07:56:59.965Z,28.83
2022-08-14T07:59:42.533Z,28.51
2022-08-14T08:02:17.095Z,28.65
2022-08-14T08:04:54.834Z,28.95
2022-08-14T08:07:23.632Z,29.61
2022-08-14T08:09:56.592Z,29.41
2022-08-14T08:12:30.061Z,29.58
2022-08-14T08:15:03.385Z,29.35
2022-08-14T08:17:38.776Z,29.67
2022-08-14T08:20:13.921Z,29.84
2022-08-14T08:22:47.891Z,29.79
2022-08-14T08:25:18.157Z,30.08
2022-08-14T08:27:56.317Z,30.06
2022-08-14T08:30:24.939Z,30.65
2022-08-14T08:32:54.398Z,31.03
2022-08-14T08:35:25.644Z,31.52
2022-08-14T08:39:15.363Z,31.37
2022-08-14T08:41:03.262Z,31.30
2022-08-14T08:43:34.282Z,31.00
2022-08-14T08:46:04.671Z,31.15
2022-08-14T08:48:52.130Z,31.54
2022-08-14T08:51:25.181Z,30.88
2022-08-14T08:54:01.052Z,31.19
2022-08-14T08:56:40.924Z,31.59
2022-08-14T08:59:22.102Z,32.29
2022-08-14T09:01:58.655Z,31.78
2022-08-14T09:04:29.890Z,31.78
2022-08-14T09:07:09.944Z,32.06
2022-08-14T09:09:56.889Z,32.51
2022-08-14T09:12:31.345Z,32.57
2022-08-14T09:15:02.173Z,31.86
2022-08-14T09:17:30.183Z,32.65
2022-08-14T09:20:01.743Z,32.06
2022-08-14T09:22:47.360Z,32.40
2022-08-14T09:25:16.395Z,32.88
2022-08-14T09:27:44.371Z,32.84
2022-08-14T09:30:32.049Z,32.50
2022-08-14T09:33:13.066Z,33.06
2022-08-14T09:35:56.434Z,33.35
2022-08-14T09:38:40.529Z,33.43
2022-08-14T09:41:19.593Z,33.85
2022-08-14T09:43:56.221Z,33.82
2022-08-14T09:46:27.647Z,33.09
2022-08-14T09:49:04.681Z,33.48
2022-08-14T09:51:44.971Z,33.33
2022-08-14T09:54:23.548Z,34.30
2022-08-14T09:56:59.403Z,34.28
2022-08-14T09:59:33.665Z,34.41
2022-08-14T10:02:07.147Z,33.95
2022-08-14T10:04:42.283Z,34.31
2022-08-14T10:07:13.683Z,34.39
2022-08-14T10:10:00.316Z,35.28
2022-08-14T10:12:48.418Z,34.78
2022-08-14T10:15:20.514Z,35.44
2022-08-14T10:17:49.544Z,35.40
2022-08-14T10:20:39.839Z,34.57
2022-08-14T10:23:16.446Z,34.48
2022-08-14T10:25:51.026Z,34.09
2022-08-14T10:29:03.577Z,34.76
2022-08-14T10:31:19.905Z,34.44
2022-08-14T10:34:13.014Z,33.91
2022-08-14T10:36:44.843Z,33.68
2022-08-14T10:39:18.679Z,33.72
2022-08-14T10:41:49.189Z,33.85
2022-08-14T10:44:24.920Z,33.72
2022-08-14T10:47:40.745Z,34.69
2022-08-14T10:49:58.138Z,35.41
2022-08-14T10:52:31.643Z,34.81
2022-08-14T10:55:13.939Z,35.29
2022-08-14T10:57:51.498Z,35.24
2022-08-14T11:00:29.439Z,35.94
2022-08-14T11:03:09.467Z,34.95
2022-08-14T11:05:42.678Z,34.31
2022-08-14T11:08:12.749Z,34.17
2022-08-14T11:10:45.129Z,34.43
2022-08-14T11:13:21.181Z,34.04
2022-08-14T11:15:52.825Z,34.62
2022-08-14T11:18:32.386Z,34.61
2022-08-14T11:21:06.880Z,35.36
2022-08-14T11:23:39.829Z,35.22
2022-08-14T11:26:13.422Z,34.65
2022-08-14T11:28:46.297Z,34.96
2022-08-14T11:31:17.197Z,35.31
2022-08-14T11:33:49.143Z,35.38
2022-08-14T11:36:18.286Z,35.47
2022-08-14T11:38:48.201Z,35.66
2022-08-14T11:41:17.550Z,35.72
2022-08-14T11:43:57.743Z,35.50
2022-08-14T11:46:30.217Z,35.84
2022-08-14T11:49:06.750Z,35.32
2022-08-14T11:51:52.916Z,35.65
2022-08-14T11:54:34.281Z,35.85
2022-08-14T11:57:02.464Z,35.68
2022-08-14T11:59:34.287Z,35.15
2022-08-14T12:03:01.274Z,35.40
2022-08-14T12:04:58.062Z,35.92
2022-08-14T12:07:26.014Z,35.77
2022-08-14T12:09:55.956Z,35.08
2022-08-14T12:12:35.072Z,35.66
2022-08-14T12:15:07.115Z,35.94
2022-08-14T12:17:49.664Z,35.25
2022-08-14T12:20:30.255Z,35.82
2022-08-14T12:23:01.539Z,36.11
2022-08-14T12:25:30.166Z,35.64
2022-08-14T12:28:05.497Z,36.48
2022-08-14T12:30:39.612Z,36.48
2022-08-14T12:33:21.995Z,36.72
2022-08-14T12:35:57.494Z,36.54
2022-08-14T12:38:37.989Z,36.80
2022-08-14T12:41:11.891Z,37.04
2022-08-14T12:43:51.537Z,36.85
2022-08-14T12:46:28.670Z,36.54
2022-08-14T12:48:58.619Z,35.94
2022-08-14T12:51:30.894Z,36.32
2022-08-14T12:54:00.075Z,37.09
2022-08-14T12:56:33.225Z,37.30
2022-08-14T12:59:03.119Z,36.61
2022-08-14T13:01:59.390Z,35.91
2022-08-14T13:04:22.909Z,35.37
2022-08-14T13:06:52.675Z,35.25
2022-08-14T13:09:20.870Z,35.62
2022-08-14T13:11:58.890Z,35.63
2022-08-14T13:14:48.868Z,36.17
2022-08-14T13:17:18.683Z,36.11
2022-08-14T13:19:47.760Z,36.30
2022-08-14T13:22:28.747Z,35.54
2022-08-14T13:25:00.954Z,35.80
2022-08-14T13:27:33.987Z,36.57
2022-08-14T13:30:10.742Z,36.13
2022-08-14T13:32:53.480Z,36.50
2022-08-14T13:35:22.561Z,36.71
2022-08-14T13:37:52.101Z,36.62
2022-08-14T13:40:26.729Z,36.38
2022-08-14T13:42:57.055Z,36.66
2022-08-14T13:45:34.166Z,36.61
2022-08-14T13:48:32.097Z,36.06
2022-08-14T13:51:05.239Z,35.84
2022-08-14T13:54:06.921Z,36.71
2022-08-14T13:56:37.134Z,36.17
2022-08-14T13:59:06.334Z,36.87
2022-08-14T14:01:43.568Z,35.97
2022-08-14T14:04:18.913Z,35.59
2022-08-14T14:06:51.191Z,35.81
2022-08-14T14:09:32.611Z,36.12
2022-08-14T14:12:06.230Z,36.29
2022-08-14T14:14:51.050Z,36.24
2022-08-14T14:17:24.331Z,35.88
2022-08-14T14:19:53.669Z,36.33
2022-08-14T14:22:36.128Z,36.03
2022-08-14T14:25:10.083Z,35.76
2022-08-14T14:27:42.156Z,36.06
2022-08-14T14:30:46.200Z,36.47
2022-08-14T14:33:04.310Z,36.68
2022-08-14T14:35:39.589Z,36.32
2022-08-14T14:38:09.676Z,35.81
2022-08-14T14:40:52.967Z,35.89
2022-08-14T14:43:26.213Z,35.68
2022-08-14T14:45:55.658Z,35.73
2022-08-14T14:48:28.202Z,35.47
2022-08-14T14:51:01.270Z,35.03
2022-08-14T14:53:39.127Z,35.12
2022-08-14T14:56:47.552Z,34.99
2022-08-14T14:58:57.502Z,35.12
2022-08-14T15:01:26.166Z,35.06
2022-08-14T15:03:55.573Z,34.02
2022-08-14T15:06:30.253Z,34.31
2022-08-14T15:09:00.346Z,34.40
2022-08-14T15:11:30.042Z,35.13
2022-08-14T15:13:58.442Z,35.01
2022-08-14T15:16:28.734Z,35.27
2022-08-14T15:18:56.475Z,35.88
2022-08-14T15:21:26.792Z,36.07
2022-08-14T15:23:55.654Z,36.25
2022-08-14T15:26:31.598Z,36.02
2022-08-14T15:29:02.896Z,35.63
2022-08-14T15:31:34.902Z,35.53
2022-08-14T15:34:43.614Z,35.36
2022-08-14T15:37:04.358Z,34.33
2022-08-14T15:39:33.964Z,34.03
2022-08-14T15:42:14.456Z,33.99
2022-08-14T15:44:57.909Z,33.49
2022-08-14T15:47:30.007Z,33.46
2022-08-14T15:50:00.238Z,33.57
2022-08-14T15:52:42.400Z,33.49
2022-08-14T15:55:14.895Z,33.32
2022-08-14T15:58:01.981Z,33.32
2022-08-14T16:00:49.376Z,33.57
2022-08-14T16:03:27.025Z,33.68
2022-08-14T16:06:03.226Z,33.71
2022-08-14T16:08:32.506Z,33.58
2022-08-14T16:11:02.176Z,33.22
2022-08-14T16:13:38.908Z,33.33
2022-08-14T16:16:49.392Z,33.54
2022-08-14T16:18:58.949Z,33.78
2022-08-14T16:21:29.415Z,33.56
2022-08-14T16:24:01.695Z,33.58
2022-08-14T16:26:32.960Z,33.42
2022-08-14T16:29:04.873Z,33.46
2022-08-14T16:31:35.912Z,33.51
2022-08-14T16:34:45.404Z,33.25
2022-08-14T16:36:53.690Z,33.05
2022-08-14T16:39:24.172Z,33.05
2022-08-14T16:41:52.836Z,33.13
2022-08-14T16:44:31.716Z,33.36
2022-08-14T16:47:03.462Z,33.18
2022-08-14T16:50:02.499Z,33.26
2022-08-14T16:52:25.840Z,33.28
2022-08-14T16:55:11.759Z,33.14
2022-08-14T16:57:49.936Z,33.22
2022-08-14T17:00:28.889Z,33.37
2022-08-14T17:03:04.555Z,33.53
2022-08-14T17:05:39.245Z,33.47
2022-08-14T17:08:32.857Z,33.57
2022-08-14T17:11:10.633Z,33.31
2022-08-14T17:13:59.469Z,33.32
2022-08-14T17:16:32.989Z,33.17
2022-08-14T17:19:05.376Z,33.22
2022-08-14T17:21:37.906Z,33.31
2022-08-14T17:24:56.644Z,33.16
2022-08-14T17:27:03.927Z,32.80
2022-08-14T17:29:34.937Z,32.65
2022-08-14T17:32:29.329Z,32.40
2022-08-14T17:35:10.574Z,32.28
2022-08-14T17:37:45.129Z,32.14
2022-08-14T17:40:16.438Z,32.00
2022-08-14T17:42:58.894Z,31.92
2022-08-14T17:45:46.708Z,31.97
2022-08-14T17:49:14.693Z,31.86
2022-08-14T17:51:24.185Z,31.89
2022-08-14T17:54:02.944Z,31.69
2022-08-14T17:56:33.340Z,31.69
2022-08-14T17:59:07.338Z,31.58
2022-08-14T18:01:38.922Z,31.33
2022-08-14T18:04:24.676Z,31.16
2022-08-14T18:06:58.514Z,30.99
2022-08-14T18:09:38.717Z,30.64
2022-08-14T18:12:09.838Z,30.60
2022-08-14T18:15:06.687Z,30.40
2022-08-14T18:17:50.735Z,30.23
2022-08-14T18:21:41.536Z,29.95
2022-08-14T18:23:13.035Z,29.74
2022-08-14T18:25:48.053Z,29.55
2022-08-14T18:28:37.895Z,29.35
2022-08-14T18:31:42.104Z,29.03
2022-08-14T18:34:30.843Z,28.75
2022-08-14T18:37:09.647Z,28.61
2022-08-14T18:40:03.047Z,28.45
2022-08-14T18:42:45.914Z,28.24
2022-08-14T18:45:18.495Z,28.00
2022-08-14T18:48:06.913Z,27.86
2022-08-14T18:50:52.380Z,27.75
2022-08-14T18:53:24.950Z,27.54
2022-08-14T18:56:00.106Z,27.44
2022-08-14T18:58:48.571Z,27.32
2022-08-14T19:01:26.652Z,27.24
2022-08-14T19:04:02.143Z,27.16
2022-08-14T19:06:44.724Z,27.06
2022-08-14T19:09:53.219Z,27.15
2022-08-14T19:13:00.482Z,27.14
2022-08-14T19:15:31.295Z,27.26
2022-08-14T19:18:14.893Z,27.30
2022-08-14T19:20:55.357Z,27.36
2022-08-14T19:23:42.655Z,27.37
2022-08-14T19:26:34.695Z,27.35
2022-08-14T19:29:37.457Z,27.40
2022-08-14T19:32:38.928Z,27.40
2022-08-14T19:35:49.889Z,27.32
2022-08-14T19:38:51.954Z,27.26
2022-08-14T19:41:25.059Z,27.30
2022-08-14T19:44:10.536Z,27.26
2022-08-14T19:47:02.599Z,27.18
2022-08-14T19:50:24.379Z,27.18
2022-08-14T19:52:25.378Z,27.16
2022-08-14T19:54:54.153Z,27.09
2022-08-14T19:57:24.571Z,27.06
2022-08-14T20:00:01.823Z,27.03
2022-08-14T20:02:32.213Z,26.98
2022-08-14T20:05:07.918Z,26.93
2022-08-14T20:08:00.640Z,26.95
2022-08-14T20:11:03.251Z,26.90
2022-08-14T20:13:32.219Z,26.89
2022-08-14T20:16:11.831Z,26.73
2022-08-14T20:18:48.979Z,26.60
2022-08-14T20:21:18.310Z,26.68
2022-08-14T20:23:48.008Z,26.69
2022-08-14T20:26:31.918Z,26.63
2022-08-14T20:29:07.336Z,26.56
2022-08-14T20:31:38.297Z,26.50
2022-08-14T20:34:18.933Z,26.44
2022-08-14T20:37:22.479Z,26.41
2022-08-14T20:39:54.229Z,26.42
2022-08-14T20:42:43.584Z,26.29
2022-08-14T20:45:19.971Z,26.33
2022-08-14T20:47:51.016Z,26.32
2022-08-14T20:50:29.140Z,26.25
2022-08-14T20:52:57.912Z,26.27
2022-08-14T20:55:30.002Z,26.23
2022-08-14T20:57:59.174Z,26.27
2022-08-14T21:00:36.586Z,26.23
2022-08-14T21:03:33.231Z,26.21
2022-08-14T21:06:03.393Z,26.22
2022-08-14T21:08:47.751Z,26.20
2022-08-14T21:11:18.692Z,26.18
2022-08-14T21:14:21.071Z,26.17
2022-08-14T21:16:39.332Z,26.20
2022-08-14T21:19:16.322Z,26.24
2022-08-14T21:21:45.319Z,26.22
2022-08-14T21:24:39.500Z,26.08
2022-08-14T21:27:21.981Z,26.02
2022-08-14T21:29:55.179Z,25.93
2022-08-14T21:32:33.986Z,25.92
2022-08-14T21:35:08.011Z,25.92
2022-08-14T21:37:36.470Z,25.93
2022-08-14T21:40:09.812Z,25.92
2022-08-14T21:42:53.161Z,25.83
2022-08-14T21:45:21.323Z,25.87
2022-08-14T21:47:49.591Z,25.73
2022-08-14T21:50:56.221Z,25.71
2022-08-14T21:53:07.870Z,25.65
2022-08-14T21:55:36.466Z,25.66
2022-08-14T21:58:51.769Z,25.65
2022-08-14T22:00:55.668Z,25.69
2022-08-14T22:03:26.223Z,25.68
2022-08-14T22:06:04.738Z,25.64
2022-08-14T22:08:38.322Z,25.62
2022-08-14T22:11:07.350Z,25.52
2022-08-14T22:13:46.495Z,25.50
2022-08-14T22:17:01.807Z,25.41
2022-08-14T22:19:02.810Z,25.37
2022-08-14T22:21:33.427Z,25.39
2022-08-14T22:24:02.070Z,25.34
2022-08-14T22:26:44.336Z,25.20
2022-08-14T22:29:12.638Z,25.14
2022-08-14T22:31:41.274Z,25.04
2022-08-14T22:34:15.172Z,24.99
2022-08-14T22:36:50.480Z,24.91
2022-08-14T22:39:20.315Z,24.89
2022-08-14T22:42:20.874Z,24.83
2022-08-14T22:44:50.318Z,24.90
2022-08-14T22:47:19.358Z,24.88
2022-08-14T22:50:31.238Z,24.78
2022-08-14T22:52:49.184Z,24.78
2022-08-14T22:55:17.563Z,24.73
2022-08-14T22:57:45.389Z,24.69
2022-08-14T23:00:20.416Z,24.59
2022-08-14T23:02:56.618Z,24.59
2022-08-14T23:05:38.838Z,24.64
2022-08-14T23:08:58.608Z,24.64
2022-08-14T23:10:59.604Z,24.68
2022-08-14T23:13:27.286Z,24.64
2022-08-14T23:15:59.024Z,24.64
2022-08-14T23:18:29.662Z,24.60
2022-08-14T23:20:57.861Z,24.65
2022-08-14T23:23:27.006Z,24.59
2022-08-14T23:25:59.599Z,24.59
2022-08-14T23:28:34.041Z,24.63
2022-08-14T23:31:34.195Z,24.62
2022-08-14T23:34:06.995Z,24.59
2022-08-14T23:36:38.122Z,24.58
2022-08-14T23:39:29.614Z,24.43
2022-08-14T23:42:02.536Z,24.42
2022-08-14T23:44:35.081Z,24.39
2022-08-14T23:47:10.794Z,24.39
2022-08-14T23:49:59.942Z,24.34
2022-08-14T23:52:56.032Z,24.32
2022-08-14T23:55:17.310Z,24.31
2022-08-14T23:57:57.861Z,24.30
